Time;durP1;ratioP1;P1;durP2;ratioP2;P2;SDS_P1;SDS_P2;PMS_P1;PMS_P2;Temp;Humidity;BMP_temperature;BMP_pressure;BME280_temperature;BME280_humidity;BME280_pressure;Samples;Min_cycle;Max_cycle;Signal;HPM_P1;HPM_P2
2022/05/13 00:00:33;;;;;;;10.73;4.90;;;;;;;16.52;53.10;98966.44;4991891;28;20053;-85
2022/05/13 00:02:58;;;;;;;8.38;4.28;;;;;;;16.56;53.21;98977.44;5026778;28;20022;-85
2022/05/13 00:05:24;;;;;;;5.85;4.55;;;;;;;16.56;53.29;98975.53;4990838;28;20036;-85
2022/05/13 00:07:49;;;;;;;5.40;4.38;;;;;;;16.52;53.49;98968.31;4992586;28;22216;-85
2022/05/13 00:10:15;;;;;;;6.15;4.50;;;;;;;16.45;53.49;98971.31;5007653;28;20091;-85
2022/05/13 00:12:41;;;;;;;7.72;4.45;;;;;;;16.47;53.72;98967.25;5004550;28;20057;-85
2022/05/13 00:15:13;;;;;;;7.25;4.38;;;;;;;16.47;53.32;98958.34;5029398;28;20049;-85
2022/05/13 00:17:39;;;;;;;4.43;4.03;;;;;;;16.41;53.43;98967.56;5009672;28;20025;-85
2022/05/13 00:20:05;;;;;;;6.43;4.95;;;;;;;16.33;53.84;98954.72;5007867;28;20048;-85
2022/05/13 00:22:31;;;;;;;6.38;4.28;;;;;;;16.40;53.61;98953.28;4987408;28;20045;-85
2022/05/13 00:24:56;;;;;;;6.10;4.25;;;;;;;16.43;53.66;98954.63;5006092;28;20030;-85
2022/05/13 00:27:23;;;;;;;6.57;4.60;;;;;;;16.42;53.78;98947.66;4990979;28;20026;-85
2022/05/13 00:29:48;;;;;;;5.43;4.05;;;;;;;16.31;54.00;98955.00;5001080;28;20040;-85
2022/05/13 00:32:15;;;;;;;6.30;4.72;;;;;;;16.28;53.87;98939.41;5001875;28;20021;-86
2022/05/13 00:34:40;;;;;;;6.40;4.78;;;;;;;16.29;53.62;98945.59;5012161;28;20021;-85
2022/05/13 00:37:05;;;;;;;6.15;3.90;;;;;;;16.28;53.93;98943.97;5008926;28;20045;-85
2022/05/13 00:39:31;;;;;;;6.80;4.80;;;;;;;16.15;54.11;98936.56;4991310;28;20029;-85
2022/05/13 00:42:08;;;;;;;4.72;4.20;;;;;;;16.28;54.02;98938.59;4992123;28;20026;-85
2022/05/13 00:44:34;;;;;;;10.60;4.95;;;;;;;16.17;54.02;98929.81;4987939;28;20034;-85
2022/05/13 00:47:01;;;;;;;7.72;4.70;;;;;;;16.19;53.66;98924.94;5004004;28;20044;-85
2022/05/13 00:49:27;;;;;;;6.35;4.28;;;;;;;16.08;53.62;98928.00;5002435;28;20718;-85
2022/05/13 00:51:53;;;;;;;7.72;4.78;;;;;;;16.13;54.22;98928.75;5004230;28;20042;-85
2022/05/13 00:54:18;;;;;;;6.97;4.53;;;;;;;16.41;53.69;98940.63;4990947;28;20032;-85
2022/05/13 00:56:47;;;;;;;5.57;4.35;;;;;;;16.36;53.63;98938.78;5010334;28;20497;-84
2022/05/13 00:59:19;;;;;;;8.73;4.43;;;;;;;16.21;53.78;98946.19;4994468;28;20528;-85
2022/05/13 01:01:45;;;;;;;7.93;4.43;;;;;;;16.36;53.08;98946.88;5025422;28;20508;-85
2022/05/13 01:04:13;;;;;;;4.60;4.20;;;;;;;16.03;53.85;98931.53;5006812;28;20029;-85
2022/05/13 01:06:42;;;;;;;5.80;3.50;;;;;;;16.02;53.96;98940.69;4987905;28;20404;-85
2022/05/13 01:09:07;;;;;;;5.95;4.25;;;;;;;16.05;53.61;98932.06;5009640;28;20029;-85
2022/05/13 01:11:37;;;;;;;7.15;4.38;;;;;;;16.11;53.79;98936.31;4995995;28;20039;-85
2022/05/13 01:14:09;;;;;;;5.20;4.43;;;;;;;15.91;54.12;98923.03;5026861;28;20084;-84
2022/05/13 01:19:20;;;;;;;6.70;4.10;;;;;;;16.13;53.25;98920.69;5008650;28;20068;-85
2022/05/13 01:21:49;;;;;;;7.90;3.70;;;;;;;16.16;53.48;98920.09;5012975;28;20393;-85
2022/05/13 01:24:19;;;;;;;7.25;4.13;;;;;;;16.10;53.75;98923.94;5025613;28;20017;-85
2022/05/13 01:26:45;;;;;;;6.10;3.75;;;;;;;16.14;52.98;98916.91;5005428;28;20404;-85
2022/05/13 01:29:10;;;;;;;6.90;4.20;;;;;;;16.15;53.05;98925.78;5032260;28;20021;-85
2022/05/13 01:31:39;;;;;;;5.80;4.13;;;;;;;16.06;53.51;98932.84;5005136;28;20769;-85
2022/05/13 01:34:08;;;;;;;4.57;3.47;;;;;;;16.09;53.29;98919.66;5025667;28;20029;-85
2022/05/13 01:36:35;;;;;;;6.57;4.10;;;;;;;15.81;54.25;98922.28;5003652;28;20041;-85
2022/05/13 01:39:00;;;;;;;5.88;3.53;;;;;;;16.04;53.48;98917.00;5005210;28;20041;-85
2022/05/13 01:41:28;;;;;;;6.25;4.10;;;;;;;15.75;54.32;98918.81;5005962;28;20037;-85
2022/05/13 01:43:54;;;;;;;5.68;3.83;;;;;;;15.88;53.97;98914.72;5025631;28;20032;-84
2022/05/13 01:46:21;;;;;;;4.38;3.70;;;;;;;16.04;53.34;98919.69;5022734;28;20021;-85
2022/05/13 01:48:47;;;;;;;7.57;3.72;;;;;;;15.80;53.84;98915.28;4989660;28;20578;-85
2022/05/13 01:51:14;;;;;;;4.20;3.67;;;;;;;15.67;54.29;98925.63;5008964;28;20128;-85
2022/05/13 01:53:39;;;;;;;4.43;3.67;;;;;;;15.68;54.34;98916.44;4996822;28;20607;-85
2022/05/13 01:56:05;;;;;;;4.53;3.50;;;;;;;15.59;54.63;98920.03;4993578;28;20044;-85
2022/05/13 01:58:30;;;;;;;4.97;3.53;;;;;;;15.72;54.16;98916.69;5011344;28;20018;-85
2022/05/13 02:00:58;;;;;;;6.95;3.70;;;;;;;15.64;54.25;98901.94;5006183;28;20103;-84
2022/05/13 02:03:44;;;;;;;5.13;3.90;;;;;;;15.62;54.39;98906.00;5008600;28;20117;-84
2022/05/13 02:06:15;;;;;;;4.65;3.55;;;;;;;15.68;54.20;98892.22;4997469;28;20448;-84
2022/05/13 02:08:40;;;;;;;6.15;3.20;;;;;;;15.64;54.14;98888.50;5025369;28;20030;-84
2022/05/13 02:11:07;;;;;;;4.75;3.45;;;;;;;15.74;54.03;98906.47;5011157;28;20041;-84
2022/05/13 02:13:33;;;;;;;5.18;2.80;;;;;;;15.54;54.62;98902.03;5006506;28;20018;-84
2022/05/13 02:15:59;;;;;;;6.13;3.45;;;;;;;15.67;53.87;98906.78;4998338;28;20060;-85
2022/05/13 02:18:25;;;;;;;3.95;3.28;;;;;;;15.83;53.89;98903.97;5026537;28;20030;-85
2022/05/13 02:20:50;;;;;;;8.07;3.33;;;;;;;15.49;54.21;98904.72;5011477;28;20041;-85
2022/05/13 02:23:20;;;;;;;6.63;3.38;;;;;;;15.39;54.39;98914.72;5019567;28;20048;-84
2022/05/13 02:25:45;;;;;;;4.30;3.42;;;;;;;15.61;54.18;98920.53;5006441;28;20037;-85
2022/05/13 02:28:10;;;;;;;5.78;3.72;;;;;;;15.73;53.73;98911.03;5011601;28;20061;-84
2022/05/13 02:30:35;;;;;;;3.88;3.10;;;;;;;15.82;53.59;98922.00;4989881;28;20049;-84
2022/05/13 02:33:01;;;;;;;4.35;3.40;;;;;;;15.45;54.64;98914.44;5003186;28;20420;-85
2022/05/13 02:35:27;;;;;;;5.38;3.50;;;;;;;15.41;54.21;98915.25;5008667;28;20535;-84
2022/05/13 02:37:53;;;;;;;4.55;3.35;;;;;;;15.68;53.67;98919.13;5027934;28;20033;-84
2022/05/13 02:40:19;;;;;;;7.07;3.50;;;;;;;15.49;54.31;98915.50;5027162;28;20431;-84
2022/05/13 02:42:45;;;;;;;11.35;4.22;;;;;;;15.64;53.73;98920.78;5028020;28;20087;-84
2022/05/13 02:45:11;;;;;;;6.82;3.38;;;;;;;15.38;54.54;98930.06;5008798;28;20030;-84
2022/05/13 02:47:38;;;;;;;3.97;3.28;;;;;;;15.50;54.00;98927.06;5023033;28;20397;-85
2022/05/13 02:50:17;;;;;;;7.00;3.85;;;;;;;15.58;53.84;98918.41;5011440;28;20017;-84
2022/05/13 02:52:42;;;;;;;7.55;4.00;;;;;;;15.46;54.19;98929.53;5012512;28;20525;-84
2022/05/13 02:55:08;;;;;;;4.60;2.90;;;;;;;15.50;53.89;98924.38;4994167;28;20124;-84
2022/05/13 02:57:34;;;;;;;3.85;3.00;;;;;;;15.31;54.44;98926.84;4977266;28;20036;-84
2022/05/13 02:59:59;;;;;;;5.00;3.15;;;;;;;15.37;54.20;98927.66;4990104;28;20069;-84
2022/05/13 03:02:25;;;;;;;6.22;3.70;;;;;;;15.23;54.72;98932.00;5009552;28;20075;-84
2022/05/13 03:04:50;;;;;;;4.22;3.20;;;;;;;15.13;54.56;98937.44;4990867;28;20557;-85
2022/05/13 03:07:16;;;;;;;3.85;3.25;;;;;;;14.98;54.89;98931.03;4987450;28;20121;-85
2022/05/13 03:09:41;;;;;;;6.50;3.58;;;;;;;14.99;55.15;98935.34;5026670;28;20034;-85
2022/05/13 03:12:07;;;;;;;6.97;3.50;;;;;;;14.90;55.32;98925.44;4994203;28;20380;-85
2022/05/13 03:14:32;;;;;;;5.90;3.33;;;;;;;14.92;55.38;98934.81;4985471;28;20025;-85
2022/05/13 03:16:57;;;;;;;5.35;3.80;;;;;;;14.96;55.32;98927.03;5010423;28;20037;-85
2022/05/13 03:19:23;;;;;;;3.67;3.22;;;;;;;14.89;55.15;98937.28;5008429;28;20033;-85
2022/05/13 03:21:48;;;;;;;4.28;3.63;;;;;;;14.81;55.14;98929.75;5009678;28;20025;-84
2022/05/13 03:24:13;;;;;;;4.90;3.35;;;;;;;15.00;54.88;98931.56;4991306;28;20544;-85
2022/05/13 03:26:38;;;;;;;5.40;3.80;;;;;;;14.91;55.19;98927.06;4991140;28;20448;-84
2022/05/13 03:29:04;;;;;;;6.63;3.40;;;;;;;14.80;55.33;98934.34;5027345;28;20091;-84
2022/05/13 03:31:32;;;;;;;6.15;3.42;;;;;;;14.86;55.25;98938.63;5005874;28;20072;-85
2022/05/13 03:33:57;;;;;;;5.32;3.67;;;;;;;14.92;55.07;98932.13;4991597;28;20148;-85
2022/05/13 03:36:22;;;;;;;5.18;3.83;;;;;;;14.93;55.26;98912.25;4993628;28;20474;-85
2022/05/13 03:38:48;;;;;;;4.57;3.42;;;;;;;14.89;55.16;98921.97;5004784;28;20382;-85
2022/05/13 03:41:13;;;;;;;5.20;3.60;;;;;;;14.79;55.46;98918.47;4978726;28;20116;-85
2022/05/13 03:43:38;;;;;;;4.70;3.25;;;;;;;14.94;55.29;98926.47;4991464;28;20849;-85
2022/05/13 03:46:04;;;;;;;8.23;4.18;;;;;;;14.92;55.25;98917.88;5005744;28;20044;-85
2022/05/13 03:48:29;;;;;;;6.80;3.40;;;;;;;14.82;55.54;98926.81;5027171;28;20026;-85
2022/05/13 03:50:54;;;;;;;6.65;3.50;;;;;;;14.79;55.53;98918.47;5005566;28;20048;-84
2022/05/13 03:53:20;;;;;;;7.30;4.10;;;;;;;14.89;55.39;98927.34;5003404;28;20070;-84
2022/05/13 03:55:45;;;;;;;6.07;3.17;;;;;;;14.76;55.78;98924.41;5001132;28;20046;-85
2022/05/13 03:58:11;;;;;;;6.20;4.13;;;;;;;14.71;55.69;98927.91;4996213;28;20461;-85
2022/05/13 04:00:37;;;;;;;7.60;3.88;;;;;;;14.86;55.52;98933.25;4998060;28;20026;-85
2022/05/13 04:03:02;;;;;;;4.70;4.03;;;;;;;14.71;55.93;98935.97;5014093;28;20037;-85
2022/05/13 04:10:55;;;;;;;5.47;4.15;;;;;;;14.79;56.05;98942.66;4978358;28;20098;-83
2022/05/13 04:16:06;;;;;;;9.10;4.13;;;;;;;14.75;55.97;98939.72;4990280;28;20491;-83
2022/05/13 04:18:39;;;;;;;6.10;4.13;;;;;;;14.69;56.12;98935.44;4999673;28;20469;-84
2022/05/13 04:21:17;;;;;;;4.20;3.67;;;;;;;14.86;55.81;98944.00;5006583;28;20083;-83
2022/05/13 04:23:45;;;;;;;4.47;4.07;;;;;;;15.06;55.62;98945.81;5012754;28;20030;-83
2022/05/13 04:26:12;;;;;;;7.78;4.65;;;;;;;15.03;55.48;98947.16;5001159;28;20076;-83
2022/05/13 04:28:42;;;;;;;5.50;4.25;;;;;;;15.17;55.13;98941.19;4979309;28;20426;-83
2022/05/13 04:31:09;;;;;;;6.88;4.30;;;;;;;15.09;55.28;98944.47;5004525;28;20669;-83
2022/05/13 04:33:35;;;;;;;3.95;3.60;;;;;;;15.29;54.72;98937.09;4996977;28;20219;-84
2022/05/13 04:36:00;;;;;;;7.13;4.03;;;;;;;15.19;55.23;98936.34;5015295;28;20034;-84
2022/05/13 04:38:26;;;;;;;7.05;4.50;;;;;;;15.18;55.08;98940.13;5003675;28;20120;-84
2022/05/13 04:40:51;;;;;;;7.50;4.38;;;;;;;15.16;55.63;98943.06;4983065;28;20411;-83
2022/05/13 04:43:16;;;;;;;4.97;4.28;;;;;;;15.43;55.13;98937.28;4974975;28;20038;-84
2022/05/13 04:45:42;;;;;;;4.63;4.15;;;;;;;15.56;54.73;98928.63;5009204;28;20406;-84
2022/05/13 04:48:15;;;;;;;6.50;4.55;;;;;;;15.70;54.66;98937.72;5018273;28;20024;-84
2022/05/13 04:50:43;;;;;;;9.80;4.70;;;;;;;15.71;54.45;98940.13;5023255;28;20049;-84
2022/05/13 04:53:09;;;;;;;7.35;5.32;;;;;;;15.81;54.60;98952.72;5030576;28;20101;-84
2022/05/13 04:55:36;;;;;;;10.52;4.68;;;;;;;15.85;54.59;98955.63;5027116;28;20079;-83
2022/05/13 04:58:02;;;;;;;12.00;5.50;;;;;;;15.83;54.25;98936.28;5023625;28;20545;-83
2022/05/13 05:00:28;;;;;;;7.03;4.65;;;;;;;15.98;54.25;98945.03;5006434;28;20021;-83
2022/05/13 05:02:54;;;;;;;15.48;5.57;;;;;;;15.98;54.34;98963.91;4998216;28;20091;-83
2022/05/13 05:05:20;;;;;;;7.25;4.72;;;;;;;16.04;54.50;98962.75;5007792;28;20033;-82
2022/05/13 05:07:45;;;;;;;11.82;5.30;;;;;;;16.08;53.89;98946.84;5020796;28;20677;-82
2022/05/13 05:10:10;;;;;;;9.45;5.63;;;;;;;16.06;54.49;98952.50;4990173;28;20033;-82
2022/05/13 05:12:37;;;;;;;6.10;4.30;;;;;;;16.04;54.58;98957.38;5006276;28;20546;-82
2022/05/13 05:15:03;;;;;;;7.32;3.90;;;;;;;16.11;54.67;98954.38;5005034;28;20030;-82
2022/05/13 05:17:29;;;;;;;5.10;4.47;;;;;;;16.09;54.78;98948.47;5021720;28;20034;-82
2022/05/13 05:19:54;;;;;;;5.70;4.70;;;;;;;16.05;55.39;98945.53;5004208;28;20483;-82
2022/05/13 05:22:19;;;;;;;8.05;4.25;;;;;;;16.04;55.45;98959.25;4992533;28;20465;-82
2022/05/13 05:24:46;;;;;;;6.78;4.10;;;;;;;16.09;54.88;98948.47;5002936;28;20046;-82
2022/05/13 05:27:12;;;;;;;7.22;4.65;;;;;;;16.15;55.18;98952.72;4982669;28;20485;-82
2022/05/13 05:29:37;;;;;;;9.00;4.32;;;;;;;16.14;55.16;98945.72;4990962;28;20746;-82
2022/05/13 05:32:03;;;;;;;6.22;4.63;;;;;;;16.17;55.19;98953.22;5003847;28;20029;-81
2022/05/13 05:34:28;;;;;;;5.47;4.28;;;;;;;16.22;55.58;98959.41;5003383;28;20035;-82
2022/05/13 05:36:54;;;;;;;6.65;4.45;;;;;;;16.27;55.02;98959.34;4992596;28;20060;-84
2022/05/13 05:39:20;;;;;;;9.85;4.72;;;;;;;16.32;55.09;98967.38;5024690;28;20047;-84
2022/05/13 05:41:45;;;;;;;7.50;4.78;;;;;;;16.38;55.56;98960.06;5008327;28;20539;-84
2022/05/13 05:44:11;;;;;;;6.65;4.30;;;;;;;16.38;55.08;98955.47;5008249;28;20057;-84
2022/05/13 05:46:36;;;;;;;8.50;4.50;;;;;;;16.40;55.79;98955.22;4998633;28;20478;-84
2022/05/13 05:49:02;;;;;;;7.80;4.88;;;;;;;16.39;55.28;98962.47;4976833;28;20153;-84
2022/05/13 05:51:27;;;;;;;4.30;3.90;;;;;;;16.39;55.64;98975.94;4990938;28;20048;-84
2022/05/13 05:59:20;;;;;;;5.90;4.20;;;;;;;16.49;55.79;98975.03;5011565;28;20036;-84
2022/05/13 06:01:46;;;;;;;4.72;4.10;;;;;;;16.53;55.66;98976.13;5014172;28;20038;-84
2022/05/13 06:04:11;;;;;;;5.60;4.57;;;;;;;16.52;55.73;98963.72;4988718;28;20550;-84
2022/05/13 06:06:37;;;;;;;8.55;4.32;;;;;;;16.54;56.09;98958.84;4990465;28;20030;-84
2022/05/13 06:09:02;;;;;;;6.55;5.03;;;;;;;16.54;56.33;98949.97;5005727;28;20125;-84
2022/05/13 06:11:27;;;;;;;8.27;5.18;;;;;;;16.59;56.09;98961.50;5008382;28;20091;-84
2022/05/13 06:13:58;;;;;;;5.10;4.60;;;;;;;16.64;56.46;98957.97;4993373;28;20084;-85
2022/05/13 06:16:25;;;;;;;9.52;6.70;;;;;;;16.73;58.78;98950.88;5016550;28;20025;-85
2022/05/13 06:18:51;;;;;;;9.15;5.40;;;;;;;16.67;58.36;98952.00;5031869;28;20454;-85
2022/05/13 06:21:16;;;;;;;11.85;6.18;;;;;;;16.69;58.18;98949.81;4994505;28;20057;-84
2022/05/13 06:23:41;;;;;;;18.30;6.00;;;;;;;16.77;57.55;98951.91;4992760;28;20030;-84
2022/05/13 06:26:07;;;;;;;20.42;5.55;;;;;;;16.83;57.30;98948.88;5030149;28;20029;-84
2022/05/13 06:28:33;;;;;;;19.48;5.38;;;;;;;16.91;57.03;98955.50;4997859;28;20543;-84
2022/05/13 06:30:58;;;;;;;10.48;5.75;;;;;;;16.98;56.53;98959.47;4980557;28;20030;-84
2022/05/13 06:33:24;;;;;;;11.60;4.95;;;;;;;17.03;56.58;98958.63;5015573;28;20025;-84
2022/05/13 06:35:50;;;;;;;12.10;4.03;;;;;;;17.10;56.59;98956.38;4999008;28;20026;-84
2022/05/13 06:38:21;;;;;;;10.80;4.43;;;;;;;17.13;56.53;98956.59;5014256;28;20030;-84
2022/05/13 06:40:50;;;;;;;6.22;3.70;;;;;;;17.16;55.76;98964.13;5031444;28;20087;-84
2022/05/13 06:43:16;;;;;;;8.90;5.57;;;;;;;17.12;55.99;98967.69;5014202;28;20029;-84
2022/05/13 06:45:42;;;;;;;6.60;3.38;;;;;;;17.17;55.27;98964.91;4998797;28;20036;-84
2022/05/13 06:48:08;;;;;;;4.57;3.55;;;;;;;17.19;55.48;98962.72;5032143;28;20021;-84
2022/05/13 06:50:33;;;;;;;6.90;3.70;;;;;;;17.17;54.86;98960.31;4998485;28;20083;-84
2022/05/13 06:52:59;;;;;;;6.53;3.28;;;;;;;17.30;54.81;98971.53;4996357;28;20394;-84
2022/05/13 06:55:25;;;;;;;6.97;2.97;;;;;;;17.33;54.75;98981.72;4997687;28;20025;-84
2022/05/13 06:57:50;;;;;;;4.85;3.42;;;;;;;17.34;54.93;98984.16;5030065;28;20029;-84
2022/05/13 07:00:16;;;;;;;4.63;2.60;;;;;;;17.33;54.70;98981.72;4998659;28;20037;-84
2022/05/13 07:02:42;;;;;;;5.45;2.90;;;;;;;17.38;54.56;98987.88;4998914;28;20039;-84
2022/05/13 07:05:12;;;;;;;4.60;2.20;;;;;;;17.47;54.59;99005.03;5009951;28;20025;-84
2022/05/13 07:07:38;;;;;;;9.25;2.70;;;;;;;17.46;54.34;98999.91;5031641;28;20735;-84
2022/05/13 07:10:05;;;;;;;9.25;2.78;;;;;;;17.50;53.94;98993.69;5032264;28;20104;-84
2022/05/13 07:12:30;;;;;;;8.73;2.95;;;;;;;17.43;54.01;98987.00;5012944;28;20366;-84
2022/05/13 07:14:56;;;;;;;10.93;2.90;;;;;;;17.55;54.34;98998.22;5032162;28;20037;-84
2022/05/13 07:17:21;;;;;;;9.13;2.65;;;;;;;17.54;53.87;98999.31;5031578;28;20104;-84
2022/05/13 07:19:47;;;;;;;5.43;2.63;;;;;;;17.48;54.06;98992.31;4982026;28;20132;-84
2022/05/13 07:22:13;;;;;;;11.02;3.00;;;;;;;17.56;53.79;99007.91;5011854;28;20033;-84
2022/05/13 07:24:38;;;;;;;8.82;2.95;;;;;;;17.51;54.00;99011.50;5012262;28;20043;-84
2022/05/13 07:27:04;;;;;;;8.30;4.70;;;;;;;17.56;54.29;99016.81;4990213;28;20041;-84
2022/05/13 07:29:30;;;;;;;6.07;3.80;;;;;;;17.54;54.15;99015.50;5010589;28;20116;-84
2022/05/13 07:31:55;;;;;;;7.35;3.35;;;;;;;17.61;53.85;99029.44;5013912;28;20104;-84
2022/05/13 07:34:21;;;;;;;6.90;3.45;;;;;;;17.68;53.69;99029.88;5032159;28;20017;-84
2022/05/13 07:36:47;;;;;;;7.13;3.35;;;;;;;17.70;54.08;99030.41;5031977;28;20022;-84
2022/05/13 07:41:56;;;;;;;4.60;3.83;;;;;;;17.67;53.78;99037.19;5002274;28;20421;-84
2022/05/13 07:44:22;;;;;;;8.75;3.63;;;;;;;17.71;53.89;99049.00;4985681;28;20037;-84
2022/05/13 07:46:47;;;;;;;7.20;3.55;;;;;;;17.58;53.25;99033.50;5031762;28;20030;-84
2022/05/13 07:49:12;;;;;;;5.20;3.25;;;;;;;17.68;53.31;99048.78;5030687;28;20028;-84
2022/05/13 07:51:38;;;;;;;5.65;2.83;;;;;;;17.65;53.21;99043.94;5030399;28;20033;-84
2022/05/13 07:54:03;;;;;;;10.85;4.03;;;;;;;17.65;53.85;99055.56;4996692;28;20046;-84
2022/05/13 07:56:29;;;;;;;8.18;3.17;;;;;;;17.52;53.56;99034.66;5026303;28;20034;-84
2022/05/13 07:58:57;;;;;;;12.10;3.63;;;;;;;17.68;52.97;99049.59;5009730;28;20029;-84
2022/05/13 08:01:22;;;;;;;6.55;3.58;;;;;;;17.65;53.46;99050.16;5013516;28;20436;-84
2022/05/13 08:03:49;;;;;;;6.07;3.83;;;;;;;17.66;53.41;99043.69;5013686;28;20031;-84
2022/05/13 08:06:14;;;;;;;6.18;3.20;;;;;;;17.73;53.94;99043.31;5011675;28;20037;-84
2022/05/13 08:08:42;;;;;;;6.53;3.30;;;;;;;17.68;53.13;99027.19;4995079;28;20497;-84
2022/05/13 08:11:11;;;;;;;6.25;3.05;;;;;;;17.80;53.02;99025.66;5027696;28;20075;-84
2022/05/13 08:13:37;;;;;;;5.30;3.65;;;;;;;17.83;53.13;99022.38;5028608;28;20021;-84
2022/05/13 08:16:15;;;;;;;5.97;3.22;;;;;;;18.00;52.36;99034.59;5011947;28;20421;-83
2022/05/13 08:18:42;;;;;;;9.20;3.22;;;;;;;18.04;52.01;99041.84;4995357;28;20086;-84
2022/05/13 08:21:08;;;;;;;6.00;3.00;;;;;;;18.05;52.05;99042.59;5013048;28;20034;-84
2022/05/13 08:23:34;;;;;;;10.38;3.17;;;;;;;18.08;51.43;99039.34;5012192;28;20503;-84
2022/05/13 08:26:00;;;;;;;8.23;3.10;;;;;;;18.12;51.36;99049.25;4996933;28;20045;-84
2022/05/13 08:28:26;;;;;;;3.60;2.33;;;;;;;18.17;51.20;99043.81;5030416;28;20029;-83
2022/05/13 08:30:52;;;;;;;4.47;2.33;;;;;;;18.21;50.58;99046.72;5011079;28;20048;-84
2022/05/13 08:33:18;;;;;;;7.28;2.10;;;;;;;18.19;49.76;99040.78;5030814;28;20033;-84
2022/05/13 08:35:49;;;;;;;8.57;2.40;;;;;;;18.21;49.40;99058.31;5012503;28;20439;-84
2022/05/13 08:38:29;;;;;;;6.78;2.28;;;;;;;18.27;48.98;99061.75;4994502;28;20307;-84
2022/05/13 08:41:09;;;;;;;6.28;2.50;;;;;;;18.31;49.45;99063.56;5022575;28;20038;-84
2022/05/13 08:43:40;;;;;;;5.30;2.38;;;;;;;18.36;49.74;99063.50;5029330;28;20034;-84
2022/05/13 08:46:11;;;;;;;12.88;3.45;;;;;;;18.41;49.54;99068.03;5030896;28;20049;-84
2022/05/13 08:49:09;;;;;;;8.32;2.55;;;;;;;18.41;49.13;99068.03;5012506;28;20025;-84
2022/05/13 08:51:52;;;;;;;6.32;2.75;;;;;;;18.51;49.04;99076.00;4996157;28;20497;-84
2022/05/13 08:54:22;;;;;;;7.50;2.38;;;;;;;18.50;49.22;99075.19;5022504;28;20021;-84
2022/05/13 08:56:50;;;;;;;4.93;2.30;;;;;;;18.56;49.40;99075.94;4997022;28;20033;-84
2022/05/13 08:59:19;;;;;;;5.65;1.98;;;;;;;18.58;49.19;99077.25;5012911;28;20029;-84
2022/05/13 09:01:49;;;;;;;8.20;3.33;;;;;;;18.65;48.64;99074.94;5012636;28;20493;-84
2022/05/13 09:04:26;;;;;;;4.20;1.92;;;;;;;18.74;48.41;99079.69;5031540;28;20040;-84
2022/05/13 09:06:56;;;;;;;7.03;2.17;;;;;;;18.82;49.23;99079.81;5016463;28;20049;-84
2022/05/13 09:09:22;;;;;;;7.53;2.13;;;;;;;18.91;49.18;99082.66;4998462;28;20366;-84
2022/05/13 09:11:56;;;;;;;2.58;1.70;;;;;;;18.96;49.07;99064.41;5014786;28;20083;-84
2022/05/13 09:14:43;;;;;;;3.17;1.90;;;;;;;19.03;48.58;99074.84;5015463;28;20018;-84
2022/05/13 09:17:33;;;;;;;6.57;1.75;;;;;;;19.12;48.58;99082.00;5033711;28;20059;-82
2022/05/13 09:20:02;;;;;;;8.57;2.20;;;;;;;19.14;48.10;99081.69;5031737;28;20409;-81
2022/05/13 09:22:36;;;;;;;2.30;2.03;;;;;;;19.14;48.81;99078.97;5000264;28;20428;-81
2022/05/13 09:25:01;;;;;;;8.80;3.03;;;;;;;19.25;48.28;99078.50;5016461;28;20060;-81
2022/05/13 09:27:27;;;;;;;9.13;2.85;;;;;;;19.22;48.33;99081.03;5015325;28;20372;-81
2022/05/13 09:29:52;;;;;;;9.10;3.47;;;;;;;19.25;48.44;99089.34;5033728;28;20025;-81
2022/05/13 09:32:26;;;;;;;7.68;2.78;;;;;;;19.31;48.34;99098.16;5033262;28;20037;-81
2022/05/13 09:35:05;;;;;;;5.18;2.53;;;;;;;19.37;48.24;99102.41;4981058;28;20025;-81
2022/05/13 09:37:40;;;;;;;8.52;2.85;;;;;;;19.34;48.16;99101.09;5033857;28;20087;-81
2022/05/13 09:40:09;;;;;;;9.68;2.85;;;;;;;19.34;47.93;99082.16;5016222;28;20037;-81
2022/05/13 09:42:40;;;;;;;9.60;2.78;;;;;;;19.30;48.37;99085.72;5033154;28;20108;-81
2022/05/13 09:45:11;;;;;;;6.35;2.33;;;;;;;19.31;48.43;99088.13;5008778;28;20036;-81
2022/05/13 09:47:38;;;;;;;6.38;2.50;;;;;;;19.37;48.08;99088.88;5032735;28;20029;-81
2022/05/13 09:50:21;;;;;;;5.88;2.33;;;;;;;19.47;48.54;99085.16;5015627;28;20171;-81
2022/05/13 09:52:47;;;;;;;8.57;2.30;;;;;;;19.54;48.61;99088.28;5031994;28;20033;-81
2022/05/13 09:55:31;;;;;;;6.72;2.10;;;;;;;19.59;48.12;99086.28;4983960;28;20091;-81
2022/05/13 09:58:00;;;;;;;9.98;2.53;;;;;;;19.68;47.63;99087.16;5015345;28;20510;-81
2022/05/13 10:00:32;;;;;;;7.00;2.60;;;;;;;19.77;47.86;99089.97;5030818;28;20033;-81
2022/05/13 10:03:24;;;;;;;5.78;2.20;;;;;;;19.88;47.23;99081.34;5033095;28;20091;-81
2022/05/13 10:06:17;;;;;;;8.32;2.63;;;;;;;20.00;47.13;99083.53;5015435;28;20494;-81
2022/05/13 10:13:57;;;;;;;5.90;2.63;;;;;;;20.13;46.69;99082.69;5014808;28;20021;-81
2022/05/13 10:14:41;;;;;;;6.70;2.38;;;;;;;20.26;46.56;99092.75;5019477;28;20043;-81
2022/05/13 10:17:24;;;;;;;6.85;2.88;;;;;;;20.26;46.42;99098.16;5008060;28;20483;-81
2022/05/13 10:20:01;;;;;;;8.27;2.13;;;;;;;20.28;46.50;99101.38;5000054;28;20032;-81
2022/05/13 10:22:48;;;;;;;5.78;2.67;;;;;;;20.28;46.43;99101.38;5016304;28;20025;-81
2022/05/13 10:25:20;;;;;;;2.50;1.80;;;;;;;20.25;45.69;99091.13;5033625;28;20033;-81
2022/05/13 10:27:50;;;;;;;3.95;2.22;;;;;;;20.30;45.29;99088.31;5013754;28;20029;-82
2022/05/13 10:30:39;;;;;;;5.15;2.00;;;;;;;20.43;44.19;99092.06;5007815;28;20052;-82
2022/05/13 10:33:16;;;;;;;3.08;1.92;;;;;;;20.49;44.35;99097.06;5014431;28;20028;-82
2022/05/13 10:36:20;;;;;;;5.55;1.90;;;;;;;20.54;45.23;99086.13;5033333;28;20112;-82
2022/05/13 10:39:23;;;;;;;6.32;2.00;;;;;;;20.45;45.12;99090.66;4988245;28;20447;-81
2022/05/13 10:41:52;;;;;;;3.78;1.77;;;;;;;20.47;45.28;99099.28;4984325;28;20090;-81
2022/05/13 10:44:39;;;;;;;7.15;2.33;;;;;;;20.44;44.69;99105.34;5015242;28;20022;-81
2022/05/13 10:47:15;;;;;;;6.95;1.88;;;;;;;20.41;45.11;99105.94;5032588;28;20136;-81
2022/05/13 10:49:43;;;;;;;6.82;1.95;;;;;;;20.29;44.97;99113.81;5010239;28;20082;-81
2022/05/13 10:52:20;;;;;;;4.07;1.63;;;;;;;20.22;44.63;99108.00;5013514;28;20037;-81
2022/05/13 10:54:56;;;;;;;2.28;1.60;;;;;;;20.18;44.26;99107.78;5011501;28;20470;-81
2022/05/13 10:57:40;;;;;;;4.68;1.27;;;;;;;20.13;44.70;99104.38;5012193;28;20322;-81
2022/05/13 11:00:14;;;;;;;3.78;1.60;;;;;;;20.06;45.07;99107.50;5014941;28;20021;-81
2022/05/13 11:02:58;;;;;;;4.45;1.58;;;;;;;20.11;44.70;99098.47;5021481;28;21232;-81
2022/05/13 11:05:39;;;;;;;5.95;1.42;;;;;;;20.22;44.45;99113.44;5014952;28;20087;-82
2022/05/13 11:08:40;;;;;;;3.40;1.42;;;;;;;20.37;44.64;99115.81;5012846;28;20032;-81
2022/05/13 11:11:33;;;;;;;8.20;2.05;;;;;;;20.42;44.42;99112.97;5028437;28;20114;-82
2022/05/13 11:14:17;;;;;;;7.22;1.65;;;;;;;20.42;44.45;99112.97;5021332;28;20026;-82
2022/05/13 11:16:49;;;;;;;3.33;1.42;;;;;;;20.39;44.75;99112.78;5022598;28;20028;-82
2022/05/13 11:19:38;;;;;;;4.72;2.15;;;;;;;20.36;44.13;99113.38;5028492;28;20075;-81
2022/05/13 11:22:26;;;;;;;3.53;2.22;;;;;;;20.37;44.47;99120.41;4984315;28;20389;-82
2022/05/13 11:27:42;;;;;;;4.85;1.80;;;;;;;20.42;43.93;99106.75;5005634;28;20096;-82
2022/05/13 11:30:18;;;;;;;3.65;1.35;;;;;;;20.43;44.16;99102.91;5005441;28;20401;-82
2022/05/13 11:32:53;;;;;;;4.85;1.80;;;;;;;20.48;44.38;99125.31;5007446;28;20132;-82
2022/05/13 11:35:38;;;;;;;4.68;1.65;;;;;;;20.48;44.21;99111.75;5017168;28;20488;-81
2022/05/13 11:38:10;;;;;;;4.88;1.77;;;;;;;20.51;43.95;99119.25;5036161;28;20202;-81
2022/05/13 11:41:06;;;;;;;4.32;1.73;;;;;;;20.48;43.43;99109.03;5020718;28;20499;-82
2022/05/13 11:43:58;;;;;;;7.00;1.63;;;;;;;20.42;44.00;99121.09;5030712;28;20026;-82
2022/05/13 11:47:05;;;;;;;5.00;1.70;;;;;;;20.35;43.61;99128.06;5019558;28;20032;-82
2022/05/13 12:08:56;;;;;;;3.78;2.85;;;;;;;20.93;42.52;99118.81;5093289;27;20420;-81
2022/05/13 12:11:43;;;;;;;2.83;1.52;;;;;;;20.96;42.43;99124.72;5091059;28;20410;-81
2022/05/13 12:14:27;;;;;;;4.25;1.38;;;;;;;21.00;42.25;99139.28;5083592;28;20486;-82
2022/05/13 12:17:13;;;;;;;2.58;1.60;;;;;;;21.00;42.25;99131.13;5085828;28;20019;-81
2022/05/13 12:19:57;;;;;;;4.50;1.45;;;;;;;20.96;42.05;99122.00;5084964;28;20031;-81
2022/05/13 12:22:41;;;;;;;7.60;1.67;;;;;;;20.96;42.12;99128.25;5082229;28;20396;-81
2022/05/13 12:25:28;;;;;;;7.82;1.77;;;;;;;20.92;42.30;99132.69;5084301;28;20032;-81
2022/05/13 12:28:07;;;;;;;9.30;1.83;;;;;;;20.96;42.24;99130.94;5072750;28;20121;-81